sensor_id;sensor_type;location;lat;lon;timestamp;pressure;altitude;pressure_sealevel;temperature;humidity
48792;BME280;34587;48.816;9.420;2023-01-29T00:00:04;99923.47;;;0.62;76.31
48792;BME280;34587;48.816;9.420;2023-01-29T00:02:35;99924.19;;;0.58;76.42
48792;BME280;34587;48.816;9.420;2023-01-29T00:05:00;99916.28;;;0.73;75.13
48792;BME280;34587;48.816;9.420;2023-01-29T00:07:25;99913.28;;;0.62;75.68
48792;BME280;34587;48.816;9.420;2023-01-29T00:09:50;99917.00;;;0.70;75.70
48792;BME280;34587;48.816;9.420;2023-01-29T00:12:16;99910.28;;;0.72;75.59
48792;BME280;34587;48.816;9.420;2023-01-29T00:14:41;99918.75;;;0.71;74.96
48792;BME280;34587;48.816;9.420;2023-01-29T00:17:07;99918.38;;;0.62;74.95
48792;BME280;34587;48.816;9.420;2023-01-29T00:19:32;99927.41;;;0.54;76.03
48792;BME280;34587;48.816;9.420;2023-01-29T00:21:57;99926.59;;;0.55;75.59
48792;BME280;34587;48.816;9.420;2023-01-29T00:24:22;99928.19;;;0.53;75.67
48792;BME280;34587;48.816;9.420;2023-01-29T00:26:48;99921.63;;;0.58;75.54
48792;BME280;34587;48.816;9.420;2023-01-29T00:29:14;99927.66;;;0.60;75.03
48792;BME280;34587;48.816;9.420;2023-01-29T00:31:43;99924.97;;;0.57;75.41
48792;BME280;34587;48.816;9.420;2023-01-29T00:34:08;99925.09;;;0.60;75.13
48792;BME280;34587;48.816;9.420;2023-01-29T00:36:34;99918.81;;;0.52;75.45
48792;BME280;34587;48.816;9.420;2023-01-29T00:38:59;99923.09;;;0.53;75.54
48792;BME280;34587;48.816;9.420;2023-01-29T00:41:27;99921.84;;;0.43;76.78
48792;BME280;34587;48.816;9.420;2023-01-29T00:44:12;99914.03;;;0.60;75.81
48792;BME280;34587;48.816;9.420;2023-01-29T00:46:56;99913.63;;;0.49;75.79
48792;BME280;34587;48.816;9.420;2023-01-29T00:49:21;99907.34;;;0.41;76.56
48792;BME280;34587;48.816;9.420;2023-01-29T00:51:46;99913.53;;;0.27;77.64
48792;BME280;34587;48.816;9.420;2023-01-29T00:54:32;99922.09;;;0.29;76.78
48792;BME280;34587;48.816;9.420;2023-01-29T00:56:57;99921.00;;;0.22;77.24
48792;BME280;34587;48.816;9.420;2023-01-29T00:59:22;99910.94;;;0.46;75.60
48792;BME280;34587;48.816;9.420;2023-01-29T05:46:23;99913.63;;;-0.51;78.88
48792;BME280;34587;48.816;9.420;2023-01-29T05:48:51;99913.75;;;-0.48;78.81
48792;BME280;34587;48.816;9.420;2023-01-29T05:51:16;99918.25;;;-0.42;78.79
48792;BME280;34587;48.816;9.420;2023-01-29T05:53:41;99898.88;;;-0.39;77.76
48792;BME280;34587;48.816;9.420;2023-01-29T05:56:07;99887.91;;;-0.57;78.40
48792;BME280;34587;48.816;9.420;2023-01-29T05:58:32;99879.97;;;-0.63;79.69
48792;BME280;34587;48.816;9.420;2023-01-29T06:01:07;99874.38;;;-0.56;78.52
48792;BME280;34587;48.816;9.420;2023-01-29T06:03:33;99875.28;;;-0.73;79.59
48792;BME280;34587;48.816;9.420;2023-01-29T06:06:00;99876.63;;;-0.82;78.97
48792;BME280;34587;48.816;9.420;2023-01-29T06:08:25;99881.72;;;-0.82;79.28
48792;BME280;34587;48.816;9.420;2023-01-29T06:10:51;99884.28;;;-0.82;79.72
48792;BME280;34587;48.816;9.420;2023-01-29T06:13:16;99886.81;;;-0.82;79.46
48792;BME280;34587;48.816;9.420;2023-01-29T06:15:41;99882.47;;;-0.65;79.63
48792;BME280;34587;48.816;9.420;2023-01-29T06:18:06;99886.81;;;-0.62;80.17
48792;BME280;34587;48.816;9.420;2023-01-29T06:20:32;99891.72;;;-0.67;80.09
48792;BME280;34587;48.816;9.420;2023-01-29T06:22:57;99889.38;;;-0.62;79.61
48792;BME280;34587;48.816;9.420;2023-01-29T06:25:23;99897.25;;;-0.75;79.68
48792;BME280;34587;48.816;9.420;2023-01-29T06:27:51;99894.91;;;-0.71;79.54
48792;BME280;34587;48.816;9.420;2023-01-29T06:30:16;99899.00;;;-0.74;78.94
48792;BME280;34587;48.816;9.420;2023-01-29T06:32:41;99898.06;;;-0.76;79.27
48792;BME280;34587;48.816;9.420;2023-01-29T06:35:07;99898.06;;;-0.76;80.11
48792;BME280;34587;48.816;9.420;2023-01-29T06:37:34;99895.56;;;-0.75;79.96
48792;BME280;34587;48.816;9.420;2023-01-29T06:39:59;99897.09;;;-0.79;80.75
48792;BME280;34587;48.816;9.420;2023-01-29T06:42:25;99907.97;;;-0.63;79.55
48792;BME280;34587;48.816;9.420;2023-01-29T06:44:53;99913.53;;;-0.72;79.74
48792;BME280;34587;48.816;9.420;2023-01-29T06:47:19;99917.47;;;-0.79;80.63
48792;BME280;34587;48.816;9.420;2023-01-29T06:49:44;99906.34;;;-0.81;80.17
48792;BME280;34587;48.816;9.420;2023-01-29T06:52:09;99904.09;;;-0.55;78.45
48792;BME280;34587;48.816;9.420;2023-01-29T06:54:34;99903.69;;;-0.64;78.79
48792;BME280;34587;48.816;9.420;2023-01-29T06:57:00;99902.34;;;-0.75;79.47
48792;BME280;34587;48.816;9.420;2023-01-29T06:59:25;99906.69;;;-0.73;78.90
48792;BME280;34587;48.816;9.420;2023-01-29T07:01:50;99912.56;;;-0.74;79.38
48792;BME280;34587;48.816;9.420;2023-01-29T07:04:16;99921.22;;;-0.70;79.66
48792;BME280;34587;48.816;9.420;2023-01-29T07:06:41;99923.38;;;-0.60;79.96
48792;BME280;34587;48.816;9.420;2023-01-29T07:09:07;99924.84;;;-0.65;80.50
48792;BME280;34587;48.816;9.420;2023-01-29T07:11:33;99921.84;;;-0.76;80.27
48792;BME280;34587;48.816;9.420;2023-01-29T07:13:59;99919.75;;;-0.65;81.10
48792;BME280;34587;48.816;9.420;2023-01-29T07:16:24;99918.16;;;-0.63;80.31
48792;BME280;34587;48.816;9.420;2023-01-29T07:18:50;99924.59;;;-0.52;79.28
48792;BME280;34587;48.816;9.420;2023-01-29T07:21:16;99924.00;;;-0.46;78.08
48792;BME280;34587;48.816;9.420;2023-01-29T07:23:41;99922.31;;;-0.46;78.41
48792;BME280;34587;48.816;9.420;2023-01-29T07:26:06;99931.59;;;-0.48;78.46
48792;BME280;34587;48.816;9.420;2023-01-29T07:28:36;99945.47;;;-0.59;78.53
48792;BME280;34587;48.816;9.420;2023-01-29T07:31:02;99934.44;;;-0.60;79.33
48792;BME280;34587;48.816;9.420;2023-01-29T07:33:28;99937.03;;;-0.58;79.31
48792;BME280;34587;48.816;9.420;2023-01-29T07:35:53;99930.63;;;-0.50;78.08
48792;BME280;34587;48.816;9.420;2023-01-29T07:38:18;99935.84;;;-0.66;78.73
48792;BME280;34587;48.816;9.420;2023-01-29T07:40:44;99937.78;;;-0.61;78.34
48792;BME280;34587;48.816;9.420;2023-01-29T07:43:09;99940.81;;;-0.50;79.75
48792;BME280;34587;48.816;9.420;2023-01-29T07:45:36;99944.81;;;-0.55;79.53
48792;BME280;34587;48.816;9.420;2023-01-29T07:48:03;99940.81;;;-0.50;78.72
48792;BME280;34587;48.816;9.420;2023-01-29T07:50:30;99951.00;;;-0.50;78.52
48792;BME280;34587;48.816;9.420;2023-01-29T07:52:56;99948.13;;;-0.38;77.37
48792;BME280;34587;48.816;9.420;2023-01-29T07:55:22;99954.56;;;-0.46;78.06
48792;BME280;34587;48.816;9.420;2023-01-29T07:57:47;99955.16;;;-0.33;78.35
48792;BME280;34587;48.816;9.420;2023-01-29T08:00:18;99959.03;;;-0.41;77.70
48792;BME280;34587;48.816;9.420;2023-01-29T08:02:44;99958.38;;;-0.37;78.22
48792;BME280;34587;48.816;9.420;2023-01-29T08:05:09;99956.63;;;-0.38;78.25
48792;BME280;34587;48.816;9.420;2023-01-29T08:07:34;99950.53;;;-0.41;78.10
48792;BME280;34587;48.816;9.420;2023-01-29T08:10:00;99947.38;;;-0.16;76.67
48792;BME280;34587;48.816;9.420;2023-01-29T08:12:25;99959.44;;;-0.32;77.97
48792;BME280;34587;48.816;9.420;2023-01-29T08:14:50;99957.38;;;-0.40;76.95
48792;BME280;34587;48.816;9.420;2023-01-29T08:17:15;99952.06;;;-0.26;77.39
48792;BME280;34587;48.816;9.420;2023-01-29T08:19:41;99951.56;;;-0.18;77.23
48792;BME280;34587;48.816;9.420;2023-01-29T08:22:06;99951.00;;;-0.11;76.31
48792;BME280;34587;48.816;9.420;2023-01-29T08:24:31;99957.56;;;-0.16;76.40
48792;BME280;34587;48.816;9.420;2023-01-29T08:26:57;99958.13;;;-0.04;76.19
48792;BME280;34587;48.816;9.420;2023-01-29T08:29:22;99965.56;;;-0.28;75.89
48792;BME280;34587;48.816;9.420;2023-01-29T08:31:48;99973.41;;;-0.04;76.10
48792;BME280;34587;48.816;9.420;2023-01-29T08:34:13;99976.88;;;-0.21;76.50
48792;BME280;34587;48.816;9.420;2023-01-29T08:36:39;99972.03;;;0.04;75.85
48792;BME280;34587;48.816;9.420;2023-01-29T08:39:04;99980.75;;;-0.30;76.34
48792;BME280;34587;48.816;9.420;2023-01-29T08:41:29;99976.22;;;-0.17;76.55
48792;BME280;34587;48.816;9.420;2023-01-29T08:43:55;99976.34;;;0.05;75.69
48792;BME280;34587;48.816;9.420;2023-01-29T08:46:21;99969.28;;;0.19;74.74
48792;BME280;34587;48.816;9.420;2023-01-29T08:48:47;99977.28;;;0.07;76.37
48792;BME280;34587;48.816;9.420;2023-01-29T08:51:12;99981.72;;;-0.08;76.02
48792;BME280;34587;48.816;9.420;2023-01-29T08:53:37;99998.94;;;0.17;75.28
48792;BME280;34587;48.816;9.420;2023-01-29T08:56:03;99991.72;;;0.28;75.32
48792;BME280;34587;48.816;9.420;2023-01-29T08:58:28;99993.69;;;0.14;74.79
48792;BME280;34587;48.816;9.420;2023-01-29T09:00:53;99988.97;;;0.23;75.03
48792;BME280;34587;48.816;9.420;2023-01-29T09:03:19;99985.03;;;0.30;74.70
48792;BME280;34587;48.816;9.420;2023-01-29T09:05:44;99986.16;;;0.36;74.88
48792;BME280;34587;48.816;9.420;2023-01-29T09:08:11;99980.09;;;0.54;73.66
48792;BME280;34587;48.816;9.420;2023-01-29T09:10:36;99987.31;;;0.64;73.92
48792;BME280;34587;48.816;9.420;2023-01-29T09:13:02;99989.06;;;0.65;73.30
48792;BME280;34587;48.816;9.420;2023-01-29T09:15:28;99987.75;;;0.74;74.11
48792;BME280;34587;48.816;9.420;2023-01-29T09:17:54;99995.00;;;0.86;73.80
48792;BME280;34587;48.816;9.420;2023-01-29T09:20:19;99991.25;;;1.20;70.94
48792;BME280;34587;48.816;9.420;2023-01-29T09:22:45;99993.25;;;1.06;71.40
48792;BME280;34587;48.816;9.420;2023-01-29T09:25:11;99982.72;;;0.97;71.21
48792;BME280;34587;48.816;9.420;2023-01-29T09:27:37;100000.56;;;0.97;70.73
48792;BME280;34587;48.816;9.420;2023-01-29T09:30:03;99992.00;;;0.96;70.40
48792;BME280;34587;48.816;9.420;2023-01-29T09:32:29;100005.97;;;0.84;70.15
48792;BME280;34587;48.816;9.420;2023-01-29T09:34:55;99999.25;;;0.86;70.11
48792;BME280;34587;48.816;9.420;2023-01-29T09:37:21;99998.63;;;1.12;70.68
48792;BME280;34587;48.816;9.420;2023-01-29T09:39:47;100000.72;;;1.01;69.72
48792;BME280;34587;48.816;9.420;2023-01-29T09:42:25;100001.25;;;0.93;70.18
48792;BME280;34587;48.816;9.420;2023-01-29T09:45:02;99995.19;;;0.91;70.29
48792;BME280;34587;48.816;9.420;2023-01-29T09:47:31;99992.75;;;1.15;68.09
48792;BME280;34587;48.816;9.420;2023-01-29T09:55:03;99974.59;;;1.52;66.38
48792;BME280;34587;48.816;9.420;2023-01-29T09:57:38;99965.06;;;1.70;64.53
48792;BME280;34587;48.816;9.420;2023-01-29T10:00:08;99955.06;;;1.76;65.67
48792;BME280;34587;48.816;9.420;2023-01-29T10:05:37;99940.03;;;2.61;61.17
48792;BME280;34587;48.816;9.420;2023-01-29T10:08:35;99931.63;;;2.63;60.36
48792;BME280;34587;48.816;9.420;2023-01-29T10:14:07;99918.09;;;3.23;58.61
48792;BME280;34587;48.816;9.420;2023-01-29T10:17:03;99906.91;;;3.19;56.85
48792;BME280;34587;48.816;9.420;2023-01-29T10:23:34;99907.00;;;3.22;57.18
48792;BME280;34587;48.816;9.420;2023-01-29T10:25:38;99910.03;;;2.82;58.88
48792;BME280;34587;48.816;9.420;2023-01-29T10:28:14;99914.13;;;3.04;58.16
48792;BME280;34587;48.816;9.420;2023-01-29T10:30:45;99927.84;;;2.52;60.71
48792;BME280;34587;48.816;9.420;2023-01-29T10:33:17;99928.31;;;2.15;61.38
48792;BME280;34587;48.816;9.420;2023-01-29T10:35:47;99933.06;;;2.29;61.71
48792;BME280;34587;48.816;9.420;2023-01-29T10:40:48;99939.50;;;2.18;62.03
48792;BME280;34587;48.816;9.420;2023-01-29T10:43:35;99929.31;;;1.94;62.28
48792;BME280;34587;48.816;9.420;2023-01-29T10:48:47;99917.00;;;2.08;62.35
48792;BME280;34587;48.816;9.420;2023-01-29T10:57:03;99914.84;;;2.20;61.53
48792;BME280;34587;48.816;9.420;2023-01-29T10:59:59;99927.34;;;1.63;63.65
48792;BME280;34587;48.816;9.420;2023-01-29T11:02:28;99919.25;;;1.99;63.42
48792;BME280;34587;48.816;9.420;2023-01-29T11:04:53;99924.75;;;1.86;63.03
48792;BME280;34587;48.816;9.420;2023-01-29T11:07:20;99923.44;;;2.48;61.98
48792;BME280;34587;48.816;9.420;2023-01-29T11:10:02;99921.00;;;2.25;62.22
48792;BME280;34587;48.816;9.420;2023-01-29T11:12:32;99920.19;;;2.02;62.94
48792;BME280;34587;48.816;9.420;2023-01-29T11:15:04;99918.97;;;1.67;64.61
48792;BME280;34587;48.816;9.420;2023-01-29T11:17:31;99914.31;;;1.56;64.11
48792;BME280;34587;48.816;9.420;2023-01-29T11:19:56;99914.72;;;1.92;63.90
48792;BME280;34587;48.816;9.420;2023-01-29T11:22:26;99910.22;;;1.85;63.65
48792;BME280;34587;48.816;9.420;2023-01-29T11:25:14;99909.63;;;1.68;62.80
48792;BME280;34587;48.816;9.420;2023-01-29T11:27:51;99913.97;;;1.70;63.25
48792;BME280;34587;48.816;9.420;2023-01-29T11:30:26;99900.22;;;2.16;63.63
48792;BME280;34587;48.816;9.420;2023-01-29T11:33:04;99900.88;;;2.62;61.54
48792;BME280;34587;48.816;9.420;2023-01-29T11:35:31;99892.50;;;2.15;61.56
48792;BME280;34587;48.816;9.420;2023-01-29T11:40:41;99892.44;;;1.88;63.50
48792;BME280;34587;48.816;9.420;2023-01-29T11:43:28;99876.19;;;2.11;63.48
48792;BME280;34587;48.816;9.420;2023-01-29T11:45:58;99866.59;;;2.29;62.42
48792;BME280;34587;48.816;9.420;2023-01-29T11:48:44;99867.59;;;2.35;61.87
48792;BME280;34587;48.816;9.420;2023-01-29T11:51:20;99877.38;;;2.21;62.18
48792;BME280;34587;48.816;9.420;2023-01-29T11:53:57;99877.63;;;2.03;63.56
48792;BME280;34587;48.816;9.420;2023-01-29T11:56:31;99878.91;;;2.16;62.43
48792;BME280;34587;48.816;9.420;2023-01-29T11:58:58;99876.81;;;2.04;62.46
48792;BME280;34587;48.816;9.420;2023-01-29T12:01:32;99871.66;;;1.78;63.67
48792;BME280;34587;48.816;9.420;2023-01-29T12:03:58;99870.03;;;1.55;63.93
48792;BME280;34587;48.816;9.420;2023-01-29T12:06:40;99864.50;;;1.68;62.97
48792;BME280;34587;48.816;9.420;2023-01-29T12:09:14;99843.97;;;2.16;61.80
48792;BME280;34587;48.816;9.420;2023-01-29T12:11:40;99838.50;;;2.58;61.50
48792;BME280;34587;48.816;9.420;2023-01-29T12:14:23;99828.78;;;2.75;60.39
48792;BME280;34587;48.816;9.420;2023-01-29T12:16:59;99822.06;;;2.78;59.70
48792;BME280;34587;48.816;9.420;2023-01-29T12:19:51;99818.72;;;3.09;58.69
48792;BME280;34587;48.816;9.420;2023-01-29T12:22:20;99802.25;;;3.31;58.58
48792;BME280;34587;48.816;9.420;2023-01-29T12:24:57;99790.56;;;3.73;57.16
48792;BME280;34587;48.816;9.420;2023-01-29T12:27:35;99786.84;;;3.30;57.72
48792;BME280;34587;48.816;9.420;2023-01-29T12:32:45;99776.16;;;2.84;59.46
48792;BME280;34587;48.816;9.420;2023-01-29T12:35:22;99774.34;;;3.41;58.07
48792;BME280;34587;48.816;9.420;2023-01-29T12:37:59;99761.13;;;3.92;55.88
48792;BME280;34587;48.816;9.420;2023-01-29T12:40:35;99750.53;;;4.14;56.92
48792;BME280;34587;48.816;9.420;2023-01-29T12:43:10;99758.56;;;3.92;56.11
48792;BME280;34587;48.816;9.420;2023-01-29T12:45:38;99759.34;;;3.56;56.99
48792;BME280;34587;48.816;9.420;2023-01-29T12:48:07;99758.47;;;3.22;58.48
48792;BME280;34587;48.816;9.420;2023-01-29T12:50:36;99752.75;;;3.64;58.17
48792;BME280;34587;48.816;9.420;2023-01-29T12:55:49;99745.00;;;3.63;57.27
48792;BME280;34587;48.816;9.420;2023-01-29T12:58:32;99741.22;;;3.15;57.67
48792;BME280;34587;48.816;9.420;2023-01-29T13:01:09;99735.69;;;3.00;59.06
48792;BME280;34587;48.816;9.420;2023-01-29T13:03:50;99742.91;;;3.15;58.66
48792;BME280;34587;48.816;9.420;2023-01-29T13:06:36;99741.38;;;3.21;58.99
48792;BME280;34587;48.816;9.420;2023-01-29T13:09:10;99732.53;;;3.10;59.17
48792;BME280;34587;48.816;9.420;2023-01-29T13:11:47;99730.03;;;3.13;59.43
48792;BME280;34587;48.816;9.420;2023-01-29T13:14:21;99722.50;;;3.51;57.97
48792;BME280;34587;48.816;9.420;2023-01-29T13:16:51;99720.47;;;3.06;58.97
48792;BME280;34587;48.816;9.420;2023-01-29T13:19:23;99717.75;;;3.31;58.10
48792;BME280;34587;48.816;9.420;2023-01-29T13:21:54;99730.47;;;2.97;58.77
48792;BME280;34587;48.816;9.420;2023-01-29T13:24:23;99724.28;;;3.20;58.25
48792;BME280;34587;48.816;9.420;2023-01-29T13:26:49;99710.03;;;3.63;58.21
48792;BME280;34587;48.816;9.420;2023-01-29T13:29:27;99715.13;;;3.63;57.87
48792;BME280;34587;48.816;9.420;2023-01-29T13:31:55;99724.81;;;3.75;56.11
48792;BME280;34587;48.816;9.420;2023-01-29T13:34:24;99728.81;;;3.30;58.50
48792;BME280;34587;48.816;9.420;2023-01-29T13:36:55;99714.59;;;3.42;57.31
48792;BME280;34587;48.816;9.420;2023-01-29T13:39:31;99718.13;;;3.47;58.28
48792;BME280;34587;48.816;9.420;2023-01-29T13:41:59;99716.31;;;3.43;57.72
48792;BME280;34587;48.816;9.420;2023-01-29T13:44:35;99714.25;;;3.63;57.28
48792;BME280;34587;48.816;9.420;2023-01-29T13:47:04;99710.38;;;4.15;56.26
48792;BME280;34587;48.816;9.420;2023-01-29T13:49:35;99709.59;;;4.17;56.14
48792;BME280;34587;48.816;9.420;2023-01-29T14:02:47;99709.31;;;3.35;58.64
48792;BME280;34587;48.816;9.420;2023-01-29T14:05:42;99716.91;;;3.32;58.03
48792;BME280;34587;48.816;9.420;2023-01-29T14:10:35;99724.09;;;3.14;58.60
48792;BME280;34587;48.816;9.420;2023-01-29T14:15:36;99718.72;;;2.45;61.84
48792;BME280;34587;48.816;9.420;2023-01-29T14:18:13;99719.72;;;2.78;62.52
48792;BME280;34587;48.816;9.420;2023-01-29T14:20:48;99720.31;;;3.00;60.94
48792;BME280;34587;48.816;9.420;2023-01-29T14:26:17;99713.16;;;2.58;61.51
48792;BME280;34587;48.816;9.420;2023-01-29T14:28:52;99703.19;;;2.37;63.37
48792;BME280;34587;48.816;9.420;2023-01-29T14:34:04;99707.50;;;2.11;63.29
48792;BME280;34587;48.816;9.420;2023-01-29T14:36:38;99702.66;;;2.20;62.25
48792;BME280;34587;48.816;9.420;2023-01-29T14:39:05;99708.84;;;2.00;62.15
48792;BME280;34587;48.816;9.420;2023-01-29T14:41:32;99711.91;;;2.17;62.48
48792;BME280;34587;48.816;9.420;2023-01-29T14:47:01;99707.66;;;2.17;62.76
48792;BME280;34587;48.816;9.420;2023-01-29T14:49:56;99696.50;;;2.14;62.62
48792;BME280;34587;48.816;9.420;2023-01-29T14:52:27;99697.50;;;1.92;62.92
48792;BME280;34587;48.816;9.420;2023-01-29T14:54:58;99699.63;;;2.05;65.05
48792;BME280;34587;48.816;9.420;2023-01-29T14:57:25;99690.97;;;2.00;64.15
48792;BME280;34587;48.816;9.420;2023-01-29T14:59:56;99694.25;;;2.24;62.53
48792;BME280;34587;48.816;9.420;2023-01-29T15:02:26;99703.63;;;1.97;63.10
48792;BME280;34587;48.816;9.420;2023-01-29T15:05:02;99707.88;;;1.96;63.37
48792;BME280;34587;48.816;9.420;2023-01-29T15:07:36;99705.06;;;2.16;63.63
48792;BME280;34587;48.816;9.420;2023-01-29T15:10:21;99699.63;;;2.05;64.03
48792;BME280;34587;48.816;9.420;2023-01-29T15:16:12;99702.03;;;1.73;63.45
48792;BME280;34587;48.816;9.420;2023-01-29T15:18:41;99698.44;;;1.94;63.59
48792;BME280;34587;48.816;9.420;2023-01-29T15:21:14;99691.50;;;1.90;64.69
48792;BME280;34587;48.816;9.420;2023-01-29T15:23:41;99692.66;;;1.72;65.14
48792;BME280;34587;48.816;9.420;2023-01-29T15:26:16;99697.50;;;1.92;65.02
48792;BME280;34587;48.816;9.420;2023-01-29T15:28:41;99703.69;;;1.71;65.47
48792;BME280;34587;48.816;9.420;2023-01-29T15:31:15;99703.16;;;1.82;64.37
48792;BME280;34587;48.816;9.420;2023-01-29T15:33:44;99692.94;;;1.82;65.23
48792;BME280;34587;48.816;9.420;2023-01-29T15:36:18;99702.00;;;1.72;64.92
48792;BME280;34587;48.816;9.420;2023-01-29T15:38:44;99700.44;;;1.50;66.07
48792;BME280;34587;48.816;9.420;2023-01-29T15:41:20;99703.88;;;1.50;65.01
48792;BME280;34587;48.816;9.420;2023-01-29T15:43:50;99711.88;;;1.36;65.85
48792;BME280;34587;48.816;9.420;2023-01-29T15:46:26;99708.09;;;1.24;65.70
48792;BME280;34587;48.816;9.420;2023-01-29T15:48:53;99710.44;;;1.18;66.55
48792;BME280;34587;48.816;9.420;2023-01-29T15:51:21;99711.91;;;1.12;67.28
48792;BME280;34587;48.816;9.420;2023-01-29T15:53:57;99713.13;;;0.97;68.37
48792;BME280;34587;48.816;9.420;2023-01-29T15:56:43;99703.66;;;0.95;69.52
48792;BME280;34587;48.816;9.420;2023-01-29T15:59:17;99698.44;;;0.92;69.45
48792;BME280;34587;48.816;9.420;2023-01-29T16:01:43;99688.66;;;1.04;68.60
48792;BME280;34587;48.816;9.420;2023-01-29T16:04:16;99686.50;;;0.91;68.62
48792;BME280;34587;48.816;9.420;2023-01-29T16:06:43;99690.38;;;0.80;69.72
48792;BME280;34587;48.816;9.420;2023-01-29T16:09:15;99686.44;;;0.65;70.75
48792;BME280;34587;48.816;9.420;2023-01-29T16:11:42;99690.06;;;0.48;71.48
48792;BME280;34587;48.816;9.420;2023-01-29T16:14:12;99693.91;;;0.37;72.44
48792;BME280;34587;48.816;9.420;2023-01-29T16:16:38;99690.13;;;0.27;74.00
48792;BME280;34587;48.816;9.420;2023-01-29T16:19:14;99692.66;;;0.05;74.60
48792;BME280;34587;48.816;9.420;2023-01-29T16:21:44;99693.31;;;-0.01;75.51
48792;BME280;34587;48.816;9.420;2023-01-29T16:24:12;99695.06;;;0.00;74.81
48792;BME280;34587;48.816;9.420;2023-01-29T16:26:45;99701.16;;;-0.17;75.85
48792;BME280;34587;48.816;9.420;2023-01-29T16:29:23;99701.28;;;-0.35;75.88
48792;BME280;34587;48.816;9.420;2023-01-29T16:31:51;99707.00;;;-0.41;76.53
48792;BME280;34587;48.816;9.420;2023-01-29T16:34:26;99704.75;;;-0.54;76.59
48792;BME280;34587;48.816;9.420;2023-01-29T16:36:54;99714.31;;;-0.69;77.34
48792;BME280;34587;48.816;9.420;2023-01-29T16:39:34;99721.94;;;-0.69;77.58
48792;BME280;34587;48.816;9.420;2023-01-29T16:44:46;99715.81;;;-0.94;78.95
48792;BME280;34587;48.816;9.420;2023-01-29T16:47:22;99716.50;;;-0.98;79.26
48792;BME280;34587;48.816;9.420;2023-01-29T16:52:59;99715.69;;;-1.16;79.76
48792;BME280;34587;48.816;9.420;2023-01-29T16:55:26;99718.13;;;-1.19;80.21
48792;BME280;34587;48.816;9.420;2023-01-29T16:57:56;99715.84;;;-1.13;80.51
48792;BME280;34587;48.816;9.420;2023-01-29T17:00:25;99714.09;;;-1.14;80.69
48792;BME280;34587;48.816;9.420;2023-01-29T17:02:54;99725.50;;;-1.25;80.96
48792;BME280;34587;48.816;9.420;2023-01-29T17:05:25;99722.44;;;-1.17;81.26
48792;BME280;34587;48.816;9.420;2023-01-29T17:07:51;99725.50;;;-1.25;82.49
48792;BME280;34587;48.816;9.420;2023-01-29T17:10:20;99733.78;;;-1.30;82.70
48792;BME280;34587;48.816;9.420;2023-01-29T17:12:56;99740.44;;;-1.32;83.29
48792;BME280;34587;48.816;9.420;2023-01-29T17:15:43;99739.53;;;-1.14;81.29
48792;BME280;34587;48.816;9.420;2023-01-29T17:18:20;99738.84;;;-1.30;83.49
48792;BME280;34587;48.816;9.420;2023-01-29T17:20:46;99740.44;;;-1.32;85.87
48792;BME280;34587;48.816;9.420;2023-01-29T17:23:12;99734.16;;;-1.40;85.13
48792;BME280;34587;48.816;9.420;2023-01-29T17:25:37;99731.34;;;-1.46;85.01
48792;BME280;34587;48.816;9.420;2023-01-29T17:28:03;99730.91;;;-1.55;85.09
48792;BME280;34587;48.816;9.420;2023-01-29T17:30:33;99735.13;;;-1.56;84.39
48792;BME280;34587;48.816;9.420;2023-01-29T17:33:16;99728.75;;;-1.65;84.69
48792;BME280;34587;48.816;9.420;2023-01-29T17:35:45;99719.78;;;-1.76;85.11
48792;BME280;34587;48.816;9.420;2023-01-29T17:38:12;99720.88;;;-1.71;85.16
48792;BME280;34587;48.816;9.420;2023-01-29T17:40:44;99720.47;;;-1.61;84.49
48792;BME280;34587;48.816;9.420;2023-01-29T17:43:11;99716.72;;;-1.69;84.38
48792;BME280;34587;48.816;9.420;2023-01-29T17:45:37;99709.34;;;-1.83;85.23
48792;BME280;34587;48.816;9.420;2023-01-29T17:48:04;99719.78;;;-1.76;85.74
48792;BME280;34587;48.816;9.420;2023-01-29T17:50:30;99715.50;;;-1.77;85.51
48792;BME280;34587;48.816;9.420;2023-01-29T17:52:56;99719.78;;;-1.76;86.02
48792;BME280;34587;48.816;9.420;2023-01-29T17:55:21;99717.47;;;-1.72;85.44
48792;BME280;34587;48.816;9.420;2023-01-29T17:57:46;99714.91;;;-1.72;84.95
48792;BME280;34587;48.816;9.420;2023-01-29T18:00:18;99713.84;;;-1.77;85.37
48792;BME280;34587;48.816;9.420;2023-01-29T18:02:44;99716.00;;;-1.85;86.03
48792;BME280;34587;48.816;9.420;2023-01-29T18:05:10;99719.09;;;-1.92;86.34
48792;BME280;34587;48.816;9.420;2023-01-29T18:07:37;99717.63;;;-1.87;85.65
48792;BME280;34587;48.816;9.420;2023-01-29T18:10:03;99717.91;;;-1.81;85.01
48792;BME280;34587;48.816;9.420;2023-01-29T18:12:28;99722.28;;;-1.96;85.63
48792;BME280;34587;48.816;9.420;2023-01-29T18:14:53;99723.44;;;-2.07;86.47
48792;BME280;34587;48.816;9.420;2023-01-29T18:17:19;99712.38;;;-1.90;87.91
48792;BME280;34587;48.816;9.420;2023-01-29T18:19:46;99714.75;;;-2.12;87.12
48792;BME280;34587;48.816;9.420;2023-01-29T18:22:12;99718.22;;;-2.10;87.73
48792;BME280;34587;48.816;9.420;2023-01-29T18:24:38;99715.19;;;-2.03;88.65
48792;BME280;34587;48.816;9.420;2023-01-29T18:27:03;99713.13;;;-2.10;88.18
48792;BME280;34587;48.816;9.420;2023-01-29T18:29:28;99713.13;;;-2.10;88.73
48792;BME280;34587;48.816;9.420;2023-01-29T18:31:54;99701.53;;;-2.05;89.75
48792;BME280;34587;48.816;9.420;2023-01-29T18:34:20;99708.34;;;-2.04;90.55
48792;BME280;34587;48.816;9.420;2023-01-29T18:36:45;99706.03;;;-2.17;89.96
48792;BME280;34587;48.816;9.420;2023-01-29T18:39:12;99708.28;;;-2.23;88.88
48792;BME280;34587;48.816;9.420;2023-01-29T18:41:37;99709.22;;;-2.21;88.99
48792;BME280;34587;48.816;9.420;2023-01-29T18:44:03;99704.97;;;-2.22;88.89
48792;BME280;34587;48.816;9.420;2023-01-29T18:46:28;99707.50;;;-2.22;88.93
48792;BME280;34587;48.816;9.420;2023-01-29T18:48:53;99711.41;;;-2.11;89.26
48792;BME280;34587;48.816;9.420;2023-01-29T18:51:19;99704.59;;;-2.12;90.19
48792;BME280;34587;48.816;9.420;2023-01-29T18:53:48;99704.59;;;-2.12;90.36
48792;BME280;34587;48.816;9.420;2023-01-29T18:56:14;99711.41;;;-2.11;90.75
48792;BME280;34587;48.816;9.420;2023-01-29T18:58:39;99709.50;;;-2.15;90.52
48792;BME280;34587;48.816;9.420;2023-01-29T19:01:06;99711.38;;;-2.29;90.14
48792;BME280;34587;48.816;9.420;2023-01-29T19:03:34;99715.31;;;-2.36;89.08
48792;BME280;34587;48.816;9.420;2023-01-29T19:06:01;99717.09;;;-2.33;89.65
48792;BME280;34587;48.816;9.420;2023-01-29T19:08:26;99718.06;;;-2.31;90.43